sensor_id;sensor_type;location;lat;lon;timestamp;temperature;humidity
9118;DHT22;4594;50.994;7.126;2022-07-12T00:02:09;17.20;40.20
9118;DHT22;4594;50.994;7.126;2022-07-12T00:04:35;17.20;40.20
9118;DHT22;4594;50.994;7.126;2022-07-12T00:07:01;17.10;40.10
9118;DHT22;4594;50.994;7.126;2022-07-12T00:09:27;17.10;40.10
9118;DHT22;4594;50.994;7.126;2022-07-12T00:11:52;17.10;40.20
9118;DHT22;4594;50.994;7.126;2022-07-12T00:14:18;17.20;40.30
9118;DHT22;4594;50.994;7.126;2022-07-12T00:16:44;17.10;40.30
9118;DHT22;4594;50.994;7.126;2022-07-12T00:19:09;16.90;40.20
9118;DHT22;4594;50.994;7.126;2022-07-12T00:21:35;16.90;40.30
9118;DHT22;4594;50.994;7.126;2022-07-12T00:24:01;17.00;40.40
9118;DHT22;4594;50.994;7.126;2022-07-12T00:26:27;16.90;40.40
9118;DHT22;4594;50.994;7.126;2022-07-12T00:28:52;16.90;40.60
9118;DHT22;4594;50.994;7.126;2022-07-12T00:31:18;16.80;40.60
9118;DHT22;4594;50.994;7.126;2022-07-12T00:33:45;16.80;40.70
9118;DHT22;4594;50.994;7.126;2022-07-12T00:36:12;16.80;40.80
9118;DHT22;4594;50.994;7.126;2022-07-12T00:38:37;16.80;40.90
9118;DHT22;4594;50.994;7.126;2022-07-12T00:41:03;16.90;41.20
9118;DHT22;4594;50.994;7.126;2022-07-12T00:43:30;16.80;41.20
9118;DHT22;4594;50.994;7.126;2022-07-12T00:45:56;16.80;41.20
9118;DHT22;4594;50.994;7.126;2022-07-12T00:48:22;16.80;41.20
9118;DHT22;4594;50.994;7.126;2022-07-12T00:50:50;16.80;41.20
9118;DHT22;4594;50.994;7.126;2022-07-12T00:53:15;16.70;41.10
9118;DHT22;4594;50.994;7.126;2022-07-12T00:55:43;16.60;41.10
9118;DHT22;4594;50.994;7.126;2022-07-12T00:58:09;16.70;41.30
9118;DHT22;4594;50.994;7.126;2022-07-12T01:00:35;16.70;41.40
9118;DHT22;4594;50.994;7.126;2022-07-12T01:03:02;16.70;41.50
9118;DHT22;4594;50.994;7.126;2022-07-12T01:05:29;16.60;41.50
9118;DHT22;4594;50.994;7.126;2022-07-12T01:07:56;16.60;41.50
9118;DHT22;4594;50.994;7.126;2022-07-12T01:10:22;16.70;41.60
9118;DHT22;4594;50.994;7.126;2022-07-12T01:12:49;16.50;41.50
9118;DHT22;4594;50.994;7.126;2022-07-12T01:15:15;16.60;41.60
9118;DHT22;4594;50.994;7.126;2022-07-12T01:17:44;16.60;41.60
9118;DHT22;4594;50.994;7.126;2022-07-12T01:20:10;16.50;41.70
9118;DHT22;4594;50.994;7.126;2022-07-12T01:22:39;16.50;41.50
9118;DHT22;4594;50.994;7.126;2022-07-12T01:27:37;16.40;41.70
9118;DHT22;4594;50.994;7.126;2022-07-12T01:30:04;16.40;41.70
9118;DHT22;4594;50.994;7.126;2022-07-12T01:32:30;16.40;41.70
9118;DHT22;4594;50.994;7.126;2022-07-12T01:35:01;16.30;41.70
9118;DHT22;4594;50.994;7.126;2022-07-12T01:37:41;16.30;41.80
9118;DHT22;4594;50.994;7.126;2022-07-12T01:40:12;16.30;41.80
9118;DHT22;4594;50.994;7.126;2022-07-12T01:42:39;16.30;42.00
9118;DHT22;4594;50.994;7.126;2022-07-12T01:45:06;16.30;41.80
9118;DHT22;4594;50.994;7.126;2022-07-12T01:47:34;16.20;41.80
9118;DHT22;4594;50.994;7.126;2022-07-12T01:50:00;16.20;41.90
9118;DHT22;4594;50.994;7.126;2022-07-12T01:52:28;16.20;42.00
9118;DHT22;4594;50.994;7.126;2022-07-12T01:54:54;16.20;42.00
9118;DHT22;4594;50.994;7.126;2022-07-12T01:57:21;16.10;42.00
9118;DHT22;4594;50.994;7.126;2022-07-12T01:59:47;16.10;42.00
9118;DHT22;4594;50.994;7.126;2022-07-12T02:02:13;16.10;42.10
9118;DHT22;4594;50.994;7.126;2022-07-12T02:04:39;16.10;42.10
9118;DHT22;4594;50.994;7.126;2022-07-12T02:07:05;15.90;42.00
9118;DHT22;4594;50.994;7.126;2022-07-12T02:09:31;16.00;42.20
9118;DHT22;4594;50.994;7.126;2022-07-12T02:11:57;16.00;42.10
9118;DHT22;4594;50.994;7.126;2022-07-12T02:14:23;16.00;42.20
9118;DHT22;4594;50.994;7.126;2022-07-12T02:16:49;15.90;42.20
9118;DHT22;4594;50.994;7.126;2022-07-12T02:19:15;15.90;42.20
9118;DHT22;4594;50.994;7.126;2022-07-12T02:21:41;15.90;42.30
9118;DHT22;4594;50.994;7.126;2022-07-12T02:24:08;16.00;42.40
9118;DHT22;4594;50.994;7.126;2022-07-12T02:26:35;15.90;42.30
9118;DHT22;4594;50.994;7.126;2022-07-12T02:29:02;15.90;42.30
9118;DHT22;4594;50.994;7.126;2022-07-12T02:31:29;15.80;42.30
9118;DHT22;4594;50.994;7.126;2022-07-12T02:33:55;15.80;42.30
9118;DHT22;4594;50.994;7.126;2022-07-12T02:36:21;15.80;42.30
9118;DHT22;4594;50.994;7.126;2022-07-12T02:38:47;15.80;42.40
9118;DHT22;4594;50.994;7.126;2022-07-12T02:41:13;15.70;42.40
9118;DHT22;4594;50.994;7.126;2022-07-12T02:43:38;15.70;42.50
9118;DHT22;4594;50.994;7.126;2022-07-12T02:46:09;15.70;42.60
9118;DHT22;4594;50.994;7.126;2022-07-12T02:48:37;15.70;42.90
9118;DHT22;4594;50.994;7.126;2022-07-12T02:51:05;15.70;42.60
9118;DHT22;4594;50.994;7.126;2022-07-12T02:53:33;15.70;42.80
9118;DHT22;4594;50.994;7.126;2022-07-12T02:56:01;15.70;42.90
9118;DHT22;4594;50.994;7.126;2022-07-12T02:58:27;15.60;42.90
9118;DHT22;4594;50.994;7.126;2022-07-12T03:00:53;15.70;43.00
9118;DHT22;4594;50.994;7.126;2022-07-12T03:03:18;15.60;43.00
9118;DHT22;4594;50.994;7.126;2022-07-12T03:05:44;15.60;42.90
9118;DHT22;4594;50.994;7.126;2022-07-12T03:08:10;15.60;42.90
9118;DHT22;4594;50.994;7.126;2022-07-12T03:10:37;15.60;42.90
9118;DHT22;4594;50.994;7.126;2022-07-12T03:13:03;15.60;42.90
9118;DHT22;4594;50.994;7.126;2022-07-12T03:15:30;15.50;42.90
9118;DHT22;4594;50.994;7.126;2022-07-12T03:17:57;15.50;42.90
9118;DHT22;4594;50.994;7.126;2022-07-12T03:20:23;15.50;42.90
9118;DHT22;4594;50.994;7.126;2022-07-12T03:22:50;15.50;43.00
9118;DHT22;4594;50.994;7.126;2022-07-12T03:25:17;15.50;43.20
9118;DHT22;4594;50.994;7.126;2022-07-12T03:27:44;15.50;43.30
9118;DHT22;4594;50.994;7.126;2022-07-12T03:30:10;15.50;43.20
9118;DHT22;4594;50.994;7.126;2022-07-12T03:32:37;15.50;43.30
9118;DHT22;4594;50.994;7.126;2022-07-12T03:35:03;15.50;43.20
9118;DHT22;4594;50.994;7.126;2022-07-12T03:37:48;15.50;43.20
9118;DHT22;4594;50.994;7.126;2022-07-12T03:40:16;15.50;43.60
9118;DHT22;4594;50.994;7.126;2022-07-12T03:42:44;15.50;43.20
9118;DHT22;4594;50.994;7.126;2022-07-12T03:45:12;15.50;43.20
9118;DHT22;4594;50.994;7.126;2022-07-12T03:47:39;15.50;43.20
9118;DHT22;4594;50.994;7.126;2022-07-12T03:50:07;15.50;43.20
9118;DHT22;4594;50.994;7.126;2022-07-12T03:52:36;15.50;43.40
9118;DHT22;4594;50.994;7.126;2022-07-12T03:55:02;15.40;43.20
9118;DHT22;4594;50.994;7.126;2022-07-12T03:57:28;15.40;43.10
9118;DHT22;4594;50.994;7.126;2022-07-12T03:59:55;15.50;43.20
9118;DHT22;4594;50.994;7.126;2022-07-12T04:02:21;15.40;43.10
9118;DHT22;4594;50.994;7.126;2022-07-12T04:04:48;15.30;43.00
9118;DHT22;4594;50.994;7.126;2022-07-12T04:07:14;15.40;43.20
9118;DHT22;4594;50.994;7.126;2022-07-12T04:09:39;15.40;43.20
9118;DHT22;4594;50.994;7.126;2022-07-12T04:12:05;15.40;43.50
9118;DHT22;4594;50.994;7.126;2022-07-12T04:14:31;15.40;43.50
9118;DHT22;4594;50.994;7.126;2022-07-12T04:16:57;15.40;43.60
9118;DHT22;4594;50.994;7.126;2022-07-12T04:19:23;15.40;43.60
9118;DHT22;4594;50.994;7.126;2022-07-12T04:21:53;15.40;43.60
9118;DHT22;4594;50.994;7.126;2022-07-12T04:24:21;15.40;43.70
9118;DHT22;4594;50.994;7.126;2022-07-12T04:26:47;15.50;43.70
9118;DHT22;4594;50.994;7.126;2022-07-12T04:29:15;15.50;43.80
9118;DHT22;4594;50.994;7.126;2022-07-12T04:31:41;15.50;43.80
9118;DHT22;4594;50.994;7.126;2022-07-12T04:34:07;15.50;43.80
9118;DHT22;4594;50.994;7.126;2022-07-12T04:36:33;15.60;43.90
9118;DHT22;4594;50.994;7.126;2022-07-12T04:38:59;15.60;43.90
9118;DHT22;4594;50.994;7.126;2022-07-12T04:41:25;15.70;44.10
9118;DHT22;4594;50.994;7.126;2022-07-12T04:43:50;15.60;44.00
9118;DHT22;4594;50.994;7.126;2022-07-12T04:46:16;15.60;44.10
9118;DHT22;4594;50.994;7.126;2022-07-12T04:48:42;15.70;44.30
9118;DHT22;4594;50.994;7.126;2022-07-12T04:51:07;15.70;44.40
9118;DHT22;4594;50.994;7.126;2022-07-12T04:53:33;15.80;44.60
9118;DHT22;4594;50.994;7.126;2022-07-12T04:55:59;15.80;44.80
9118;DHT22;4594;50.994;7.126;2022-07-12T04:58:25;16.00;45.00
9118;DHT22;4594;50.994;7.126;2022-07-12T05:00:50;16.10;45.20
9118;DHT22;4594;50.994;7.126;2022-07-12T05:03:16;16.10;45.40
9118;DHT22;4594;50.994;7.126;2022-07-12T05:05:42;16.30;45.70
9118;DHT22;4594;50.994;7.126;2022-07-12T05:08:08;16.40;46.00
9118;DHT22;4594;50.994;7.126;2022-07-12T05:10:34;16.60;46.40
9118;DHT22;4594;50.994;7.126;2022-07-12T05:13:01;16.90;46.90
9118;DHT22;4594;50.994;7.126;2022-07-12T05:15:26;17.20;47.20
9118;DHT22;4594;50.994;7.126;2022-07-12T05:17:52;17.50;47.60
9118;DHT22;4594;50.994;7.126;2022-07-12T05:20:18;17.90;48.00
9118;DHT22;4594;50.994;7.126;2022-07-12T05:22:44;18.30;47.80
9118;DHT22;4594;50.994;7.126;2022-07-12T05:25:10;18.60;47.70
9118;DHT22;4594;50.994;7.126;2022-07-12T05:27:36;19.00;47.80
9118;DHT22;4594;50.994;7.126;2022-07-12T05:30:03;19.40;47.70
9118;DHT22;4594;50.994;7.126;2022-07-12T05:32:30;19.80;47.80
9118;DHT22;4594;50.994;7.126;2022-07-12T05:34:56;20.20;47.70
9118;DHT22;4594;50.994;7.126;2022-07-12T05:37:21;20.50;47.80
9118;DHT22;4594;50.994;7.126;2022-07-12T05:39:50;21.00;47.40
9118;DHT22;4594;50.994;7.126;2022-07-12T05:42:17;21.20;47.20
9118;DHT22;4594;50.994;7.126;2022-07-12T05:44:43;21.60;47.20
9118;DHT22;4594;50.994;7.126;2022-07-12T05:47:09;21.90;47.10
9118;DHT22;4594;50.994;7.126;2022-07-12T05:49:34;22.30;47.00
9118;DHT22;4594;50.994;7.126;2022-07-12T05:52:00;22.70;46.90
9118;DHT22;4594;50.994;7.126;2022-07-12T05:54:44;23.00;46.80
9118;DHT22;4594;50.994;7.126;2022-07-12T05:57:10;23.40;46.40
9118;DHT22;4594;50.994;7.126;2022-07-12T05:59:36;23.70;46.40
9118;DHT22;4594;50.994;7.126;2022-07-12T06:02:03;24.10;46.40
9118;DHT22;4594;50.994;7.126;2022-07-12T06:04:29;24.50;46.50
9118;DHT22;4594;50.994;7.126;2022-07-12T06:06:55;24.90;46.30
9118;DHT22;4594;50.994;7.126;2022-07-12T06:09:22;25.30;45.90
9118;DHT22;4594;50.994;7.126;2022-07-12T06:11:47;25.60;45.50
9118;DHT22;4594;50.994;7.126;2022-07-12T06:14:13;25.90;45.10
9118;DHT22;4594;50.994;7.126;2022-07-12T06:16:39;26.30;44.90
9118;DHT22;4594;50.994;7.126;2022-07-12T06:19:04;26.70;44.70
9118;DHT22;4594;50.994;7.126;2022-07-12T06:21:30;27.10;44.40
9118;DHT22;4594;50.994;7.126;2022-07-12T06:23:56;27.40;44.10
9118;DHT22;4594;50.994;7.126;2022-07-12T06:26:22;27.80;43.80
9118;DHT22;4594;50.994;7.126;2022-07-12T06:28:47;28.10;43.40
9118;DHT22;4594;50.994;7.126;2022-07-12T06:31:13;28.40;42.80
9118;DHT22;4594;50.994;7.126;2022-07-12T06:33:39;28.70;42.60
9118;DHT22;4594;50.994;7.126;2022-07-12T06:36:04;29.00;42.40
9118;DHT22;4594;50.994;7.126;2022-07-12T06:38:30;29.30;42.20
9118;DHT22;4594;50.994;7.126;2022-07-12T06:40:56;29.60;42.00
9118;DHT22;4594;50.994;7.126;2022-07-12T06:43:22;29.90;41.80
9118;DHT22;4594;50.994;7.126;2022-07-12T06:45:48;30.20;41.70
9118;DHT22;4594;50.994;7.126;2022-07-12T06:48:13;30.50;41.40
9118;DHT22;4594;50.994;7.126;2022-07-12T06:50:39;30.80;41.00
9118;DHT22;4594;50.994;7.126;2022-07-12T06:53:05;31.10;40.80
9118;DHT22;4594;50.994;7.126;2022-07-12T06:55:30;31.40;40.80
9118;DHT22;4594;50.994;7.126;2022-07-12T06:57:56;31.70;40.70
9118;DHT22;4594;50.994;7.126;2022-07-12T07:00:22;32.00;40.50
9118;DHT22;4594;50.994;7.126;2022-07-12T07:02:48;32.30;40.30
9118;DHT22;4594;50.994;7.126;2022-07-12T07:05:14;32.60;40.20
9118;DHT22;4594;50.994;7.126;2022-07-12T07:07:41;33.00;40.20
9118;DHT22;4594;50.994;7.126;2022-07-12T07:10:07;33.30;39.90
9118;DHT22;4594;50.994;7.126;2022-07-12T07:12:33;33.60;39.70
9118;DHT22;4594;50.994;7.126;2022-07-12T07:14:59;33.90;39.40
9118;DHT22;4594;50.994;7.126;2022-07-12T07:17:24;34.20;39.20
9118;DHT22;4594;50.994;7.126;2022-07-12T07:19:50;34.50;39.00
9118;DHT22;4594;50.994;7.126;2022-07-12T07:22:16;34.80;38.90
9118;DHT22;4594;50.994;7.126;2022-07-12T07:24:41;35.00;38.70
9118;DHT22;4594;50.994;7.126;2022-07-12T07:27:07;35.30;38.50
9118;DHT22;4594;50.994;7.126;2022-07-12T07:29:34;35.60;38.30
9118;DHT22;4594;50.994;7.126;2022-07-12T07:32:18;35.90;38.10
9118;DHT22;4594;50.994;7.126;2022-07-12T07:34:43;36.10;37.90
9118;DHT22;4594;50.994;7.126;2022-07-12T07:37:10;36.40;37.50
9118;DHT22;4594;50.994;7.126;2022-07-12T07:39:36;36.50;37.10
9118;DHT22;4594;50.994;7.126;2022-07-12T07:42:02;36.70;36.80
9118;DHT22;4594;50.994;7.126;2022-07-12T07:44:28;36.80;36.80
9118;DHT22;4594;50.994;7.126;2022-07-12T07:46:54;36.90;36.60
9118;DHT22;4594;50.994;7.126;2022-07-12T07:49:19;37.00;36.50
9118;DHT22;4594;50.994;7.126;2022-07-12T07:51:45;37.10;36.50
9118;DHT22;4594;50.994;7.126;2022-07-12T07:54:11;37.40;36.50
9118;DHT22;4594;50.994;7.126;2022-07-12T07:56:36;37.60;36.30
9118;DHT22;4594;50.994;7.126;2022-07-12T07:59:02;37.80;36.20
9118;DHT22;4594;50.994;7.126;2022-07-12T08:01:28;38.10;36.10
9118;DHT22;4594;50.994;7.126;2022-07-12T08:04:14;38.20;35.80
9118;DHT22;4594;50.994;7.126;2022-07-12T08:06:41;38.40;35.50
9118;DHT22;4594;50.994;7.126;2022-07-12T08:09:08;38.50;35.50
9118;DHT22;4594;50.994;7.126;2022-07-12T08:11:35;38.70;35.40
9118;DHT22;4594;50.994;7.126;2022-07-12T08:14:02;38.90;35.30
9118;DHT22;4594;50.994;7.126;2022-07-12T08:16:28;39.00;35.00
9118;DHT22;4594;50.994;7.126;2022-07-12T08:18:55;39.20;34.80
9118;DHT22;4594;50.994;7.126;2022-07-12T08:21:21;39.40;34.70
9118;DHT22;4594;50.994;7.126;2022-07-12T08:23:46;39.50;34.60
9118;DHT22;4594;50.994;7.126;2022-07-12T08:26:12;39.70;34.50
9118;DHT22;4594;50.994;7.126;2022-07-12T08:28:38;39.80;34.50
9118;DHT22;4594;50.994;7.126;2022-07-12T08:31:03;40.00;34.30
9118;DHT22;4594;50.994;7.126;2022-07-12T08:33:29;40.20;34.20
9118;DHT22;4594;50.994;7.126;2022-07-12T08:35:55;40.40;34.10
9118;DHT22;4594;50.994;7.126;2022-07-12T08:38:21;40.60;33.90
9118;DHT22;4594;50.994;7.126;2022-07-12T08:40:47;40.70;33.70
9118;DHT22;4594;50.994;7.126;2022-07-12T08:43:13;40.80;33.50
9118;DHT22;4594;50.994;7.126;2022-07-12T08:45:39;41.00;33.40
9118;DHT22;4594;50.994;7.126;2022-07-12T08:48:06;41.10;33.40
9118;DHT22;4594;50.994;7.126;2022-07-12T08:50:33;41.30;33.50
9118;DHT22;4594;50.994;7.126;2022-07-12T08:52:59;41.50;33.20
9118;DHT22;4594;50.994;7.126;2022-07-12T08:55:33;41.70;33.20
9118;DHT22;4594;50.994;7.126;2022-07-12T08:58:02;41.90;32.80
9118;DHT22;4594;50.994;7.126;2022-07-12T09:00:31;42.00;32.80
9118;DHT22;4594;50.994;7.126;2022-07-12T09:02:59;42.30;32.70
9118;DHT22;4594;50.994;7.126;2022-07-12T09:05:29;42.40;32.50
9118;DHT22;4594;50.994;7.126;2022-07-12T09:08:09;42.40;32.30
9118;DHT22;4594;50.994;7.126;2022-07-12T09:10:54;42.60;31.90
9118;DHT22;4594;50.994;7.126;2022-07-12T09:13:52;42.70;32.00
9118;DHT22;4594;50.994;7.126;2022-07-12T09:16:21;42.80;31.60
9118;DHT22;4594;50.994;7.126;2022-07-12T09:18:49;43.00;32.00
9118;DHT22;4594;50.994;7.126;2022-07-12T09:21:48;43.00;31.80
9118;DHT22;4594;50.994;7.126;2022-07-12T09:24:15;43.10;31.30
9118;DHT22;4594;50.994;7.126;2022-07-12T09:26:42;43.10;31.50
9118;DHT22;4594;50.994;7.126;2022-07-12T09:29:10;43.10;31.10
9118;DHT22;4594;50.994;7.126;2022-07-12T09:31:50;43.10;31.00
9118;DHT22;4594;50.994;7.126;2022-07-12T09:34:36;43.10;30.80
9118;DHT22;4594;50.994;7.126;2022-07-12T09:37:21;43.10;31.00
9118;DHT22;4594;50.994;7.126;2022-07-12T09:39:48;43.10;31.00
9118;DHT22;4594;50.994;7.126;2022-07-12T09:42:17;43.10;31.00
9118;DHT22;4594;50.994;7.126;2022-07-12T09:44:43;43.20;30.80
9118;DHT22;4594;50.994;7.126;2022-07-12T09:47:12;43.30;30.80
9118;DHT22;4594;50.994;7.126;2022-07-12T09:49:41;43.40;30.60
9118;DHT22;4594;50.994;7.126;2022-07-12T09:52:15;43.50;30.60
9118;DHT22;4594;50.994;7.126;2022-07-12T09:54:46;43.50;30.20
9118;DHT22;4594;50.994;7.126;2022-07-12T09:59:57;43.70;30.20
9118;DHT22;4594;50.994;7.126;2022-07-12T10:02:24;43.80;30.50
9118;DHT22;4594;50.994;7.126;2022-07-12T10:04:51;43.90;30.40
9118;DHT22;4594;50.994;7.126;2022-07-12T10:07:17;44.00;30.20
9118;DHT22;4594;50.994;7.126;2022-07-12T10:09:44;44.00;30.10
9118;DHT22;4594;50.994;7.126;2022-07-12T10:12:15;44.10;30.00
9118;DHT22;4594;50.994;7.126;2022-07-12T10:14:43;44.20;29.90
9118;DHT22;4594;50.994;7.126;2022-07-12T10:17:10;44.20;29.90
9118;DHT22;4594;50.994;7.126;2022-07-12T10:19:38;44.20;29.80
9118;DHT22;4594;50.994;7.126;2022-07-12T10:22:06;44.20;29.70
9118;DHT22;4594;50.994;7.126;2022-07-12T10:29:40;44.00;29.40
9118;DHT22;4594;50.994;7.126;2022-07-12T10:32:26;44.00;29.50
9118;DHT22;4594;50.994;7.126;2022-07-12T10:35:03;43.80;29.40
9118;DHT22;4594;50.994;7.126;2022-07-12T10:37:31;43.80;29.40
9118;DHT22;4594;50.994;7.126;2022-07-12T10:45:34;43.70;29.30
9118;DHT22;4594;50.994;7.126;2022-07-12T10:48:06;43.60;29.40
9118;DHT22;4594;50.994;7.126;2022-07-12T10:53:34;43.50;29.10
9118;DHT22;4594;50.994;7.126;2022-07-12T10:58:57;43.40;29.00
9118;DHT22;4594;50.994;7.126;2022-07-12T11:01:30;43.30;29.10
9118;DHT22;4594;50.994;7.126;2022-07-12T11:04:09;43.20;29.00
9118;DHT22;4594;50.994;7.126;2022-07-12T11:06:40;43.10;28.80
9118;DHT22;4594;50.994;7.126;2022-07-12T11:09:09;42.90;28.80
9118;DHT22;4594;50.994;7.126;2022-07-12T11:11:44;42.70;28.70
9118;DHT22;4594;50.994;7.126;2022-07-12T11:14:24;42.40;28.60
9118;DHT22;4594;50.994;7.126;2022-07-12T11:16:52;42.10;28.60
9118;DHT22;4594;50.994;7.126;2022-07-12T11:19:30;41.80;28.60
9118;DHT22;4594;50.994;7.126;2022-07-12T11:21:58;41.60;28.40
9118;DHT22;4594;50.994;7.126;2022-07-12T11:24:26;41.30;28.40
9118;DHT22;4594;50.994;7.126;2022-07-12T11:27:01;41.10;28.40
9118;DHT22;4594;50.994;7.126;2022-07-12T11:29:28;40.90;28.60
9118;DHT22;4594;50.994;7.126;2022-07-12T11:32:01;40.70;28.60
9118;DHT22;4594;50.994;7.126;2022-07-12T11:34:34;40.60;28.70
9118;DHT22;4594;50.994;7.126;2022-07-12T11:37:00;40.50;28.70
9118;DHT22;4594;50.994;7.126;2022-07-12T11:39:34;40.40;28.70
9118;DHT22;4594;50.994;7.126;2022-07-12T11:42:05;40.30;28.70
9118;DHT22;4594;50.994;7.126;2022-07-12T11:44:48;40.20;28.70
9118;DHT22;4594;50.994;7.126;2022-07-12T11:47:20;40.10;28.60
9118;DHT22;4594;50.994;7.126;2022-07-12T11:49:50;39.90;28.50
9118;DHT22;4594;50.994;7.126;2022-07-12T11:52:24;39.60;28.30
9118;DHT22;4594;50.994;7.126;2022-07-12T11:54:52;39.30;28.30
9118;DHT22;4594;50.994;7.126;2022-07-12T11:57:21;39.00;28.30
9118;DHT22;4594;50.994;7.126;2022-07-12T11:59:48;38.60;28.30
9118;DHT22;4594;50.994;7.126;2022-07-12T12:02:15;38.40;28.30
9118;DHT22;4594;50.994;7.126;2022-07-12T12:04:52;38.00;28.20
9118;DHT22;4594;50.994;7.126;2022-07-12T12:07:21;37.80;28.40
9118;DHT22;4594;50.994;7.126;2022-07-12T12:10:13;37.50;28.30
9118;DHT22;4594;50.994;7.126;2022-07-12T12:12:47;37.20;28.30
9118;DHT22;4594;50.994;7.126;2022-07-12T12:15:15;37.00;28.20
9118;DHT22;4594;50.994;7.126;2022-07-12T12:20:27;36.40;28.30
9118;DHT22;4594;50.994;7.126;2022-07-12T12:22:54;36.10;28.30
9118;DHT22;4594;50.994;7.126;2022-07-12T12:25:22;35.70;28.10
9118;DHT22;4594;50.994;7.126;2022-07-12T12:27:55;35.50;28.20
9118;DHT22;4594;50.994;7.126;2022-07-12T12:30:26;35.10;28.10
9118;DHT22;4594;50.994;7.126;2022-07-12T12:32:55;34.90;28.20
9118;DHT22;4594;50.994;7.126;2022-07-12T12:35:36;34.70;28.20
9118;DHT22;4594;50.994;7.126;2022-07-12T12:38:10;34.40;28.30
9118;DHT22;4594;50.994;7.126;2022-07-12T12:40:38;34.20;28.40
9118;DHT22;4594;50.994;7.126;2022-07-12T12:43:11;34.00;28.30
9118;DHT22;4594;50.994;7.126;2022-07-12T12:45:55;33.80;28.50
9118;DHT22;4594;50.994;7.126;2022-07-12T12:48:32;33.70;28.70
9118;DHT22;4594;50.994;7.126;2022-07-12T12:51:10;33.60;28.70
9118;DHT22;4594;50.994;7.126;2022-07-12T12:53:40;33.50;28.70
9118;DHT22;4594;50.994;7.126;2022-07-12T12:56:08;33.40;28.60
9118;DHT22;4594;50.994;7.126;2022-07-12T12:58:36;33.30;28.50
9118;DHT22;4594;50.994;7.126;2022-07-12T13:01:03;33.30;28.60
9118;DHT22;4594;50.994;7.126;2022-07-12T13:03:30;33.20;28.60
9118;DHT22;4594;50.994;7.126;2022-07-12T13:05:56;33.10;28.50
9118;DHT22;4594;50.994;7.126;2022-07-12T13:08:24;33.00;28.60
9118;DHT22;4594;50.994;7.126;2022-07-12T13:10:50;32.90;28.60
9118;DHT22;4594;50.994;7.126;2022-07-12T13:13:37;32.80;28.60
9118;DHT22;4594;50.994;7.126;2022-07-12T13:16:04;32.60;28.50
9118;DHT22;4594;50.994;7.126;2022-07-12T13:18:30;32.60;28.60
9118;DHT22;4594;50.994;7.126;2022-07-12T13:20:56;32.50;28.60
9118;DHT22;4594;50.994;7.126;2022-07-12T13:23:22;32.40;28.60
9118;DHT22;4594;50.994;7.126;2022-07-12T13:25:48;32.30;28.70
9118;DHT22;4594;50.994;7.126;2022-07-12T13:28:14;32.30;28.70
9118;DHT22;4594;50.994;7.126;2022-07-12T13:30:40;32.20;28.60
9118;DHT22;4594;50.994;7.126;2022-07-12T13:33:06;32.10;28.70
9118;DHT22;4594;50.994;7.126;2022-07-12T13:35:31;32.10;28.60
9118;DHT22;4594;50.994;7.126;2022-07-12T13:37:58;32.10;28.70
9118;DHT22;4594;50.994;7.126;2022-07-12T13:40:24;32.00;28.70
9118;DHT22;4594;50.994;7.126;2022-07-12T13:42:51;31.90;28.70
9118;DHT22;4594;50.994;7.126;2022-07-12T13:45:22;31.90;28.80
9118;DHT22;4594;50.994;7.126;2022-07-12T13:47:50;31.90;28.70
9118;DHT22;4594;50.994;7.126;2022-07-12T13:50:20;31.90;28.70
9118;DHT22;4594;50.994;7.126;2022-07-12T13:52:47;31.80;28.60
9118;DHT22;4594;50.994;7.126;2022-07-12T13:55:15;31.80;28.60
9118;DHT22;4594;50.994;7.126;2022-07-12T13:57:43;31.80;28.70
9118;DHT22;4594;50.994;7.126;2022-07-12T14:00:12;31.70;28.70
9118;DHT22;4594;50.994;7.126;2022-07-12T14:02:48;31.70;28.80
9118;DHT22;4594;50.994;7.126;2022-07-12T14:05:15;31.60;28.90
9118;DHT22;4594;50.994;7.126;2022-07-12T14:07:43;31.60;28.90
9118;DHT22;4594;50.994;7.126;2022-07-12T14:10:10;31.60;28.80
9118;DHT22;4594;50.994;7.126;2022-07-12T14:12:40;31.60;28.90
9118;DHT22;4594;50.994;7.126;2022-07-12T14:15:06;31.60;28.90
9118;DHT22;4594;50.994;7.126;2022-07-12T14:18:01;31.60;29.00
9118;DHT22;4594;50.994;7.126;2022-07-12T14:20:28;31.60;28.90
9118;DHT22;4594;50.994;7.126;2022-07-12T14:22:55;31.60;28.90
9118;DHT22;4594;50.994;7.126;2022-07-12T14:25:21;31.60;28.90
9118;DHT22;4594;50.994;7.126;2022-07-12T14:27:47;31.60;28.90
9118;DHT22;4594;50.994;7.126;2022-07-12T14:30:13;31.70;29.30
9118;DHT22;4594;50.994;7.126;2022-07-12T14:32:40;31.70;29.00
9118;DHT22;4594;50.994;7.126;2022-07-12T14:35:07;31.70;29.00
9118;DHT22;4594;50.994;7.126;2022-07-12T14:37:35;31.70;29.00
9118;DHT22;4594;50.994;7.126;2022-07-12T14:40:05;31.80;29.00
9118;DHT22;4594;50.994;7.126;2022-07-12T14:42:31;31.80;29.00
9118;DHT22;4594;50.994;7.126;2022-07-12T14:44:57;31.80;28.90
9118;DHT22;4594;50.994;7.126;2022-07-12T14:47:23;31.90;29.00
9118;DHT22;4594;50.994;7.126;2022-07-12T14:49:49;31.90;28.90
9118;DHT22;4594;50.994;7.126;2022-07-12T14:52:16;31.90;28.90
9118;DHT22;4594;50.994;7.126;2022-07-12T14:54:43;31.90;28.80
9118;DHT22;4594;50.994;7.126;2022-07-12T14:57:09;31.90;28.90
9118;DHT22;4594;50.994;7.126;2022-07-12T14:59:35;31.90;28.80
9118;DHT22;4594;50.994;7.126;2022-07-12T15:02:01;31.90;28.80
9118;DHT22;4594;50.994;7.126;2022-07-12T15:04:27;31.80;28.70
9118;DHT22;4594;50.994;7.126;2022-07-12T15:06:52;31.80;28.70
9118;DHT22;4594;50.994;7.126;2022-07-12T15:09:18;31.80;28.70
9118;DHT22;4594;50.994;7.126;2022-07-12T15:11:44;31.80;28.60
9118;DHT22;4594;50.994;7.126;2022-07-12T15:14:09;31.70;28.60
9118;DHT22;4594;50.994;7.126;2022-07-12T15:16:36;31.70;28.60
9118;DHT22;4594;50.994;7.126;2022-07-12T15:19:01;31.70;28.50
9118;DHT22;4594;50.994;7.126;2022-07-12T15:21:27;31.70;28.50
9118;DHT22;4594;50.994;7.126;2022-07-12T15:23:53;31.70;28.60
9118;DHT22;4594;50.994;7.126;2022-07-12T15:26:18;31.60;28.60
9118;DHT22;4594;50.994;7.126;2022-07-12T15:31:18;31.60;28.80
9118;DHT22;4594;50.994;7.126;2022-07-12T15:33:43;31.60;28.80
9118;DHT22;4594;50.994;7.126;2022-07-12T15:36:10;31.60;28.90
9118;DHT22;4594;50.994;7.126;2022-07-12T15:38:36;31.60;28.90
9118;DHT22;4594;50.994;7.126;2022-07-12T15:41:01;31.70;28.80
9118;DHT22;4594;50.994;7.126;2022-07-12T15:43:27;31.70;28.80
9118;DHT22;4594;50.994;7.126;2022-07-12T15:45:53;31.70;28.90
9118;DHT22;4594;50.994;7.126;2022-07-12T15:48:18;31.70;29.00
9118;DHT22;4594;50.994;7.126;2022-07-12T15:50:44;31.70;28.90
9118;DHT22;4594;50.994;7.126;2022-07-12T15:53:10;31.70;29.00
9118;DHT22;4594;50.994;7.126;2022-07-12T15:56:02;31.70;29.00
9118;DHT22;4594;50.994;7.126;2022-07-12T15:58:32;31.70;29.10
9118;DHT22;4594;50.994;7.126;2022-07-12T16:00:59;31.70;29.10
9118;DHT22;4594;50.994;7.126;2022-07-12T16:03:27;31.70;29.10
9118;DHT22;4594;50.994;7.126;2022-07-12T16:05:55;31.70;29.10
9118;DHT22;4594;50.994;7.126;2022-07-12T16:08:22;31.70;29.10
9118;DHT22;4594;50.994;7.126;2022-07-12T16:10:49;31.70;29.10
9118;DHT22;4594;50.994;7.126;2022-07-12T16:13:15;31.70;29.10
9118;DHT22;4594;50.994;7.126;2022-07-12T16:15:41;31.70;29.00
9118;DHT22;4594;50.994;7.126;2022-07-12T16:18:07;31.70;29.00
9118;DHT22;4594;50.994;7.126;2022-07-12T16:20:33;31.70;29.00
9118;DHT22;4594;50.994;7.126;2022-07-12T16:23:00;31.70;29.00
9118;DHT22;4594;50.994;7.126;2022-07-12T16:25:27;31.70;29.00
9118;DHT22;4594;50.994;7.126;2022-07-12T16:27:53;31.70;29.00
9118;DHT22;4594;50.994;7.126;2022-07-12T16:30:22;31.70;29.00
9118;DHT22;4594;50.994;7.126;2022-07-12T16:32:48;31.70;29.00
9118;DHT22;4594;50.994;7.126;2022-07-12T16:35:15;31.70;29.00